EWG1WJ EDDL-EDDM
Flight info
| Callsign | EWG1WJ |
|---|---|
| Flight time | 0h 54m |
| Altitude | 27000 |
| Route | DODEN7Z/05R DODEN Y853 BOMBI T104 ROKIL |
| Aircraft | A320/M-SDE3FGHIRWY/LB1 |
Departure
| Time | 2026-05-05 18:54 |
|---|---|
| Airport | Düsseldorf Airport (EDDL) |
Arrival
| Time | 2026-05-05 19:49 |
|---|---|
| Airport | Munich Airport (EDDM) |
| Time | Latitude | Longitude | Altitude | Speed | Heading |
|---|---|---|---|---|---|
| 2026-05-05 18:39 | 51.28106 | 6.76721 | 158 ft | 0 kts | 276° |
| 2026-05-05 18:40 | 51.28106 | 6.76722 | 158 ft | 1 kts | 276° |
| 2026-05-05 18:40 | 51.28101 | 6.76760 | 126 ft | 4 kts | 295° |
| 2026-05-05 18:40 | 51.28086 | 6.76792 | 125 ft | 4 kts | 341° |
| 2026-05-05 18:41 | 51.28065 | 6.76793 | 128 ft | 4 kts | 28° |
| 2026-05-05 18:41 | 51.28061 | 6.76789 | 126 ft | 0 kts | 17° |
| 2026-05-05 18:44 | 51.28067 | 6.76792 | 128 ft | 4 kts | 17° |
| 2026-05-05 18:44 | 51.28093 | 6.76806 | 128 ft | 2 kts | 17° |
| 2026-05-05 18:45 | 51.28096 | 6.76807 | 128 ft | 0 kts | 17° |
| 2026-05-05 18:45 | 51.28116 | 6.76817 | 129 ft | 8 kts | 17° |
| 2026-05-05 18:45 | 51.28167 | 6.76835 | 130 ft | 6 kts | 6° |
| 2026-05-05 18:45 | 51.28201 | 6.76841 | 130 ft | 4 kts | 6° |
| 2026-05-05 18:46 | 51.28230 | 6.76846 | 130 ft | 5 kts | 6° |
| 2026-05-05 18:46 | 51.28273 | 6.76844 | 125 ft | 9 kts | 342° |
| 2026-05-05 18:46 | 51.28329 | 6.76779 | 125 ft | 10 kts | 322° |
| 2026-05-05 18:46 | 51.28383 | 6.76712 | 126 ft | 10 kts | 322° |
| 2026-05-05 18:47 | 51.28409 | 6.76607 | 126 ft | 11 kts | 242° |
| 2026-05-05 18:47 | 51.28367 | 6.76519 | 125 ft | 12 kts | 232° |
| 2026-05-05 18:47 | 51.28316 | 6.76414 | 123 ft | 10 kts | 232° |
| 2026-05-05 18:47 | 51.28278 | 6.76334 | 122 ft | 10 kts | 233° |
| 2026-05-05 18:48 | 51.28221 | 6.76213 | 123 ft | 14 kts | 233° |
| 2026-05-05 18:48 | 51.28169 | 6.76104 | 128 ft | 13 kts | 232° |
| 2026-05-05 18:48 | 51.28096 | 6.75954 | 128 ft | 19 kts | 232° |
| 2026-05-05 18:48 | 51.28025 | 6.75803 | 127 ft | 15 kts | 232° |
| 2026-05-05 18:49 | 51.27964 | 6.75676 | 127 ft | 16 kts | 232° |
| 2026-05-05 18:49 | 51.27898 | 6.75535 | 127 ft | 15 kts | 233° |
| 2026-05-05 18:49 | 51.27845 | 6.75420 | 125 ft | 11 kts | 242° |
| 2026-05-05 18:49 | 51.27863 | 6.75332 | 124 ft | 8 kts | 326° |
| 2026-05-05 18:50 | 51.27880 | 6.75317 | 123 ft | 0 kts | 332° |
| 2026-05-05 18:50 | 51.27884 | 6.75315 | 122 ft | 1 kts | 334° |
| 2026-05-05 18:50 | 51.27914 | 6.75291 | 121 ft | 8 kts | 334° |
| 2026-05-05 18:51 | 51.27987 | 6.75276 | 122 ft | 11 kts | 24° |
| 2026-05-05 18:51 | 51.28028 | 6.75341 | 120 ft | 5 kts | 52° |
| 2026-05-05 18:51 | 51.28038 | 6.75363 | 122 ft | 0 kts | 52° |
| 2026-05-05 18:51 | 51.28040 | 6.75367 | 122 ft | 0 kts | 52° |
| 2026-05-05 18:53 | 51.28069 | 6.75428 | 121 ft | 31 kts | 52° |
| 2026-05-05 18:53 | 51.28347 | 6.76011 | 128 ft | 98 kts | 53° |
| 2026-05-05 18:54 | 51.28876 | 6.77117 | 132 ft | 150 kts | 53° |
| 2026-05-05 18:54 | 51.29535 | 6.78525 | 650 ft | 158 kts | 50° |
| 2026-05-05 18:54 | 51.30193 | 6.79926 | 1458 ft | 158 kts | 51° |
| 2026-05-05 18:54 | 51.30885 | 6.81381 | 1876 ft | 174 kts | 51° |
| 2026-05-05 18:55 | 51.31663 | 6.83009 | 2123 ft | 195 kts | 52° |
| 2026-05-05 18:55 | 51.32537 | 6.84840 | 2397 ft | 219 kts | 53° |
| 2026-05-05 18:55 | 51.33508 | 6.86892 | 2809 ft | 242 kts | 54° |
| 2026-05-05 18:55 | 51.34469 | 6.89155 | 3484 ft | 250 kts | 63° |
| 2026-05-05 18:56 | 51.35044 | 6.91806 | 4276 ft | 256 kts | 80° |
| 2026-05-05 18:56 | 51.35110 | 6.94672 | 5059 ft | 262 kts | 97° |
| 2026-05-05 18:56 | 51.34819 | 6.97584 | 5838 ft | 268 kts | 99° |
| 2026-05-05 18:56 | 51.34516 | 7.00550 | 6594 ft | 275 kts | 99° |
| 2026-05-05 18:57 | 51.34202 | 7.03619 | 7431 ft | 277 kts | 100° |
| 2026-05-05 18:57 | 51.33586 | 7.06500 | 8201 ft | 281 kts | 122° |
| 2026-05-05 18:57 | 51.32294 | 7.08843 | 9030 ft | 284 kts | 138° |
| 2026-05-05 18:57 | 51.30782 | 7.10987 | 9817 ft | 289 kts | 139° |
| 2026-05-05 18:58 | 51.29249 | 7.13157 | 10279 ft | 305 kts | 139° |
| 2026-05-05 18:58 | 51.27622 | 7.15461 | 10505 ft | 327 kts | 139° |
| 2026-05-05 18:58 | 51.25888 | 7.17913 | 11011 ft | 337 kts | 139° |
| 2026-05-05 18:58 | 51.24100 | 7.20441 | 11714 ft | 341 kts | 139° |
| 2026-05-05 18:59 | 51.22319 | 7.22961 | 12423 ft | 344 kts | 139° |
| 2026-05-05 18:59 | 51.20529 | 7.25497 | 13146 ft | 346 kts | 139° |
| 2026-05-05 18:59 | 51.18725 | 7.28053 | 13811 ft | 348 kts | 139° |
| 2026-05-05 18:59 | 51.16940 | 7.30583 | 14819 ft | 334 kts | 139° |
| 2026-05-05 19:00 | 51.15233 | 7.33001 | 15854 ft | 326 kts | 139° |
| 2026-05-05 19:00 | 51.13537 | 7.35398 | 16576 ft | 326 kts | 139° |
| 2026-05-05 19:00 | 51.11834 | 7.37799 | 17228 ft | 328 kts | 139° |
| 2026-05-05 19:00 | 51.10116 | 7.40214 | 17833 ft | 331 kts | 140° |
| 2026-05-05 19:01 | 51.08384 | 7.42640 | 18390 ft | 333 kts | 140° |
| 2026-05-05 19:01 | 51.06637 | 7.45083 | 18913 ft | 336 kts | 140° |
| 2026-05-05 19:01 | 51.04876 | 7.47546 | 19444 ft | 338 kts | 140° |
| 2026-05-05 19:01 | 51.03111 | 7.50014 | 19984 ft | 340 kts | 140° |
| 2026-05-05 19:02 | 51.01330 | 7.52510 | 20524 ft | 342 kts | 139° |
| 2026-05-05 19:02 | 50.99544 | 7.55011 | 21062 ft | 343 kts | 139° |
| 2026-05-05 19:02 | 50.97747 | 7.57526 | 21593 ft | 345 kts | 139° |
| 2026-05-05 19:02 | 50.95938 | 7.60052 | 22122 ft | 347 kts | 140° |
| 2026-05-05 19:03 | 50.94120 | 7.62583 | 22637 ft | 349 kts | 140° |
| 2026-05-05 19:03 | 50.92288 | 7.65135 | 23144 ft | 352 kts | 139° |
| 2026-05-05 19:03 | 50.90442 | 7.67702 | 23602 ft | 354 kts | 139° |
| 2026-05-05 19:03 | 50.88585 | 7.70278 | 24025 ft | 356 kts | 140° |
| 2026-05-05 19:04 | 50.86716 | 7.72864 | 24454 ft | 358 kts | 140° |
| 2026-05-05 19:04 | 50.84840 | 7.75465 | 24868 ft | 360 kts | 139° |
| 2026-05-05 19:04 | 50.83009 | 7.78121 | 25147 ft | 366 kts | 137° |
| 2026-05-05 19:04 | 50.81119 | 7.80982 | 25270 ft | 377 kts | 136° |
| 2026-05-05 19:05 | 50.79224 | 7.83921 | 25393 ft | 386 kts | 136° |
| 2026-05-05 19:05 | 50.77291 | 7.86937 | 25517 ft | 395 kts | 136° |
| 2026-05-05 19:05 | 50.75312 | 7.90006 | 25725 ft | 401 kts | 136° |
| 2026-05-05 19:05 | 50.73307 | 7.93091 | 26030 ft | 404 kts | 136° |
| 2026-05-05 19:06 | 50.71286 | 7.96181 | 26372 ft | 406 kts | 136° |
| 2026-05-05 19:06 | 50.69248 | 7.99285 | 26710 ft | 408 kts | 136° |
| 2026-05-05 19:06 | 50.67210 | 8.02379 | 26795 ft | 402 kts | 136° |
| 2026-05-05 19:06 | 50.65223 | 8.05390 | 26808 ft | 392 kts | 136° |
| 2026-05-05 19:07 | 50.63262 | 8.08356 | 26810 ft | 389 kts | 136° |
| 2026-05-05 19:07 | 50.61312 | 8.11297 | 26811 ft | 388 kts | 136° |
| 2026-05-05 19:07 | 50.59364 | 8.14232 | 26814 ft | 388 kts | 136° |
| 2026-05-05 19:07 | 50.57415 | 8.17164 | 26813 ft | 387 kts | 136° |
| 2026-05-05 19:08 | 50.55471 | 8.20089 | 26816 ft | 387 kts | 136° |
| 2026-05-05 19:08 | 50.53524 | 8.23018 | 26816 ft | 387 kts | 136° |
| 2026-05-05 19:08 | 50.51581 | 8.25938 | 26822 ft | 387 kts | 136° |
| 2026-05-05 19:08 | 50.49634 | 8.28856 | 26820 ft | 387 kts | 136° |
| 2026-05-05 19:09 | 50.47687 | 8.31771 | 26820 ft | 387 kts | 137° |
| 2026-05-05 19:09 | 50.45739 | 8.34686 | 26818 ft | 387 kts | 136° |
| 2026-05-05 19:09 | 50.43791 | 8.37600 | 26818 ft | 387 kts | 136° |
| 2026-05-05 19:09 | 50.41843 | 8.40510 | 26817 ft | 387 kts | 136° |
| 2026-05-05 19:10 | 50.39895 | 8.43414 | 26817 ft | 387 kts | 137° |
| 2026-05-05 19:10 | 50.37942 | 8.46320 | 26824 ft | 387 kts | 137° |
| 2026-05-05 19:10 | 50.35990 | 8.49223 | 26823 ft | 387 kts | 137° |
| 2026-05-05 19:10 | 50.34035 | 8.52125 | 26814 ft | 387 kts | 137° |
| 2026-05-05 19:11 | 50.32078 | 8.55026 | 26809 ft | 387 kts | 137° |
| 2026-05-05 19:11 | 50.30124 | 8.57923 | 26808 ft | 387 kts | 136° |
| 2026-05-05 19:11 | 50.28167 | 8.60823 | 26809 ft | 387 kts | 136° |
| 2026-05-05 19:11 | 50.26211 | 8.63720 | 26808 ft | 388 kts | 136° |
| 2026-05-05 19:12 | 50.24252 | 8.66617 | 26803 ft | 388 kts | 136° |
| 2026-05-05 19:12 | 50.22295 | 8.69507 | 26802 ft | 387 kts | 136° |
| 2026-05-05 19:12 | 50.20337 | 8.72394 | 26801 ft | 387 kts | 137° |
| 2026-05-05 19:12 | 50.18378 | 8.75279 | 26803 ft | 387 kts | 137° |
| 2026-05-05 19:13 | 50.16416 | 8.78164 | 26802 ft | 387 kts | 137° |
| 2026-05-05 19:13 | 50.14454 | 8.81039 | 26801 ft | 388 kts | 137° |
| 2026-05-05 19:13 | 50.12487 | 8.83917 | 26801 ft | 388 kts | 137° |
| 2026-05-05 19:13 | 50.10522 | 8.86793 | 26799 ft | 388 kts | 137° |
| 2026-05-05 19:14 | 50.08559 | 8.89666 | 26802 ft | 388 kts | 137° |
| 2026-05-05 19:14 | 50.06596 | 8.92544 | 26806 ft | 388 kts | 137° |
| 2026-05-05 19:14 | 50.04630 | 8.95423 | 26806 ft | 388 kts | 137° |
| 2026-05-05 19:14 | 50.02664 | 8.98292 | 26807 ft | 388 kts | 137° |
| 2026-05-05 19:15 | 50.00694 | 9.01164 | 26811 ft | 388 kts | 137° |
| 2026-05-05 19:15 | 49.98724 | 9.04034 | 26811 ft | 388 kts | 137° |
| 2026-05-05 19:15 | 49.96758 | 9.06892 | 26815 ft | 388 kts | 137° |
| 2026-05-05 19:15 | 49.94782 | 9.09753 | 26818 ft | 388 kts | 137° |
| 2026-05-05 19:16 | 49.92809 | 9.12603 | 26820 ft | 388 kts | 137° |
| 2026-05-05 19:16 | 49.90838 | 9.15458 | 26820 ft | 388 kts | 137° |
| 2026-05-05 19:16 | 49.88866 | 9.18314 | 26818 ft | 388 kts | 137° |
| 2026-05-05 19:16 | 49.86890 | 9.21171 | 26816 ft | 388 kts | 137° |
| 2026-05-05 19:17 | 49.84916 | 9.24015 | 26816 ft | 388 kts | 137° |
| 2026-05-05 19:17 | 49.82934 | 9.26869 | 26819 ft | 388 kts | 137° |
| 2026-05-05 19:17 | 49.80956 | 9.29719 | 26819 ft | 388 kts | 137° |
| 2026-05-05 19:17 | 49.78979 | 9.32566 | 26819 ft | 389 kts | 137° |
| 2026-05-05 19:18 | 49.77001 | 9.35417 | 26820 ft | 389 kts | 137° |
| 2026-05-05 19:18 | 49.75021 | 9.38266 | 26821 ft | 389 kts | 137° |
| 2026-05-05 19:18 | 49.73040 | 9.41106 | 26820 ft | 389 kts | 137° |
| 2026-05-05 19:18 | 49.71053 | 9.43943 | 26818 ft | 389 kts | 138° |
| 2026-05-05 19:19 | 49.69062 | 9.46777 | 26820 ft | 389 kts | 138° |
| 2026-05-05 19:19 | 49.67072 | 9.49608 | 26820 ft | 389 kts | 138° |
| 2026-05-05 19:19 | 49.65087 | 9.52435 | 26818 ft | 389 kts | 138° |
| 2026-05-05 19:19 | 49.63100 | 9.55271 | 26819 ft | 389 kts | 138° |
| 2026-05-05 19:20 | 49.61789 | 9.57142 | 26820 ft | 389 kts | 138° |
| 2026-05-05 19:20 | 49.59798 | 9.59980 | 26823 ft | 389 kts | 138° |
| 2026-05-05 19:20 | 49.57809 | 9.62808 | 26821 ft | 389 kts | 138° |
| 2026-05-05 19:20 | 49.55817 | 9.65635 | 26821 ft | 389 kts | 138° |
| 2026-05-05 19:21 | 49.53823 | 9.68460 | 26819 ft | 390 kts | 138° |
| 2026-05-05 19:21 | 49.51830 | 9.71282 | 26818 ft | 390 kts | 139° |
| 2026-05-05 19:21 | 49.49832 | 9.74104 | 26820 ft | 390 kts | 139° |
| 2026-05-05 19:21 | 49.47833 | 9.76925 | 26818 ft | 390 kts | 139° |
| 2026-05-05 19:22 | 49.45833 | 9.79745 | 26817 ft | 390 kts | 139° |
| 2026-05-05 19:22 | 49.43835 | 9.82564 | 26818 ft | 390 kts | 139° |
| 2026-05-05 19:22 | 49.41833 | 9.85382 | 26818 ft | 390 kts | 139° |
| 2026-05-05 19:22 | 49.39828 | 9.88199 | 26816 ft | 391 kts | 139° |
| 2026-05-05 19:23 | 49.37821 | 9.91011 | 26818 ft | 391 kts | 139° |
| 2026-05-05 19:23 | 49.35786 | 9.93859 | 26816 ft | 391 kts | 139° |
| 2026-05-05 19:23 | 49.33801 | 9.96630 | 26817 ft | 391 kts | 139° |
| 2026-05-05 19:23 | 49.31789 | 9.99437 | 26817 ft | 391 kts | 139° |
| 2026-05-05 19:24 | 49.29778 | 10.02240 | 26820 ft | 391 kts | 139° |
| 2026-05-05 19:24 | 49.27740 | 10.05088 | 26821 ft | 391 kts | 139° |
| 2026-05-05 19:24 | 49.25757 | 10.07864 | 26823 ft | 391 kts | 139° |
| 2026-05-05 19:24 | 49.23748 | 10.10679 | 26825 ft | 391 kts | 140° |
| 2026-05-05 19:25 | 49.21744 | 10.13478 | 26823 ft | 387 kts | 140° |
| 2026-05-05 19:25 | 49.19754 | 10.16249 | 26557 ft | 377 kts | 140° |
| 2026-05-05 19:25 | 49.17827 | 10.18926 | 26127 ft | 373 kts | 140° |
| 2026-05-05 19:25 | 49.15912 | 10.21572 | 25663 ft | 370 kts | 140° |
| 2026-05-05 19:26 | 49.14012 | 10.24207 | 25180 ft | 368 kts | 139° |
| 2026-05-05 19:26 | 49.12193 | 10.26935 | 24898 ft | 367 kts | 136° |
| 2026-05-05 19:26 | 49.10428 | 10.29763 | 24857 ft | 368 kts | 135° |
| 2026-05-05 19:26 | 49.08687 | 10.32639 | 24868 ft | 370 kts | 135° |
| 2026-05-05 19:27 | 49.06947 | 10.35530 | 24870 ft | 370 kts | 135° |
| 2026-05-05 19:27 | 49.05199 | 10.38408 | 24870 ft | 369 kts | 135° |
| 2026-05-05 19:27 | 49.03444 | 10.41262 | 24872 ft | 369 kts | 136° |
| 2026-05-05 19:27 | 49.01678 | 10.44104 | 24871 ft | 369 kts | 136° |
| 2026-05-05 19:28 | 48.99907 | 10.46938 | 24865 ft | 370 kts | 136° |
| 2026-05-05 19:28 | 48.98130 | 10.49765 | 24465 ft | 370 kts | 136° |
| 2026-05-05 19:28 | 48.96342 | 10.52602 | 23903 ft | 371 kts | 136° |
| 2026-05-05 19:28 | 48.94564 | 10.55422 | 23448 ft | 368 kts | 136° |
| 2026-05-05 19:29 | 48.92798 | 10.58229 | 22925 ft | 366 kts | 136° |
| 2026-05-05 19:29 | 48.91044 | 10.61016 | 22469 ft | 363 kts | 136° |
| 2026-05-05 19:29 | 48.89309 | 10.63777 | 22007 ft | 360 kts | 136° |
| 2026-05-05 19:29 | 48.87586 | 10.66518 | 21551 ft | 357 kts | 136° |
| 2026-05-05 19:30 | 48.85873 | 10.69234 | 21106 ft | 355 kts | 136° |
| 2026-05-05 19:30 | 48.84166 | 10.71929 | 20657 ft | 353 kts | 136° |
| 2026-05-05 19:30 | 48.82466 | 10.74615 | 20202 ft | 352 kts | 136° |
| 2026-05-05 19:30 | 48.80775 | 10.77291 | 19755 ft | 351 kts | 136° |
| 2026-05-05 19:31 | 48.79087 | 10.79951 | 19317 ft | 350 kts | 136° |
| 2026-05-05 19:31 | 48.77400 | 10.82600 | 18878 ft | 349 kts | 136° |
| 2026-05-05 19:31 | 48.75717 | 10.85237 | 18435 ft | 348 kts | 136° |
| 2026-05-05 19:31 | 48.74048 | 10.87890 | 18046 ft | 346 kts | 132° |
| 2026-05-05 19:32 | 48.72722 | 10.90863 | 17959 ft | 336 kts | 124° |
| 2026-05-05 19:32 | 48.71530 | 10.93829 | 17873 ft | 324 kts | 124° |
| 2026-05-05 19:32 | 48.70365 | 10.96722 | 17778 ft | 328 kts | 124° |
| 2026-05-05 19:32 | 48.69144 | 10.99735 | 17511 ft | 340 kts | 124° |
| 2026-05-05 19:33 | 48.67911 | 11.02784 | 17087 ft | 339 kts | 124° |
| 2026-05-05 19:33 | 48.66683 | 11.05828 | 16650 ft | 338 kts | 124° |
| 2026-05-05 19:33 | 48.65462 | 11.08859 | 16236 ft | 337 kts | 124° |
| 2026-05-05 19:33 | 48.64241 | 11.11885 | 15866 ft | 336 kts | 124° |
| 2026-05-05 19:34 | 48.63025 | 11.14892 | 15498 ft | 334 kts | 124° |
| 2026-05-05 19:34 | 48.61814 | 11.17878 | 15134 ft | 333 kts | 124° |
| 2026-05-05 19:34 | 48.60607 | 11.20858 | 14775 ft | 332 kts | 124° |
| 2026-05-05 19:35 | 48.58524 | 11.27029 | 14067 ft | 333 kts | 107° |
| 2026-05-05 19:35 | 48.58009 | 11.30448 | 13708 ft | 334 kts | 104° |
| 2026-05-05 19:35 | 48.57532 | 11.33888 | 13167 ft | 337 kts | 104° |
| 2026-05-05 19:35 | 48.57053 | 11.37364 | 12694 ft | 338 kts | 104° |
| 2026-05-05 19:36 | 48.56575 | 11.40836 | 12289 ft | 337 kts | 104° |
| 2026-05-05 19:36 | 48.56098 | 11.44293 | 11893 ft | 336 kts | 104° |
| 2026-05-05 19:36 | 48.55625 | 11.47734 | 11508 ft | 334 kts | 104° |
| 2026-05-05 19:36 | 48.55152 | 11.51163 | 11109 ft | 333 kts | 104° |
| 2026-05-05 19:37 | 48.54683 | 11.54569 | 10843 ft | 328 kts | 104° |
| 2026-05-05 19:37 | 48.54232 | 11.57868 | 10831 ft | 314 kts | 104° |
| 2026-05-05 19:37 | 48.53808 | 11.61016 | 10816 ft | 300 kts | 104° |
| 2026-05-05 19:37 | 48.53393 | 11.64115 | 10361 ft | 305 kts | 104° |
| 2026-05-05 19:38 | 48.52967 | 11.67258 | 9977 ft | 306 kts | 104° |
| 2026-05-05 19:38 | 48.52539 | 11.70394 | 9637 ft | 305 kts | 104° |
| 2026-05-05 19:38 | 48.52112 | 11.73514 | 9269 ft | 304 kts | 104° |
| 2026-05-05 19:38 | 48.51680 | 11.76629 | 8904 ft | 302 kts | 104° |
| 2026-05-05 19:39 | 48.51388 | 11.78714 | 8664 ft | 301 kts | 104° |
| 2026-05-05 19:39 | 48.50389 | 11.85703 | 7837 ft | 297 kts | 104° |
| 2026-05-05 19:39 | 48.49944 | 11.88734 | 7462 ft | 295 kts | 104° |
| 2026-05-05 19:40 | 48.49493 | 11.91747 | 7101 ft | 294 kts | 104° |
| 2026-05-05 19:40 | 48.49039 | 11.94739 | 6734 ft | 292 kts | 104° |
| 2026-05-05 19:40 | 48.48579 | 11.97720 | 6365 ft | 291 kts | 104° |
| 2026-05-05 19:40 | 48.48115 | 12.00682 | 5988 ft | 290 kts | 104° |
| 2026-05-05 19:41 | 48.47647 | 12.03630 | 5620 ft | 288 kts | 104° |
| 2026-05-05 19:41 | 48.47177 | 12.06561 | 5249 ft | 287 kts | 104° |
| 2026-05-05 19:41 | 48.46709 | 12.09463 | 5003 ft | 281 kts | 104° |
| 2026-05-05 19:41 | 48.46261 | 12.12242 | 4996 ft | 264 kts | 104° |
| 2026-05-05 19:42 | 48.45832 | 12.14881 | 5005 ft | 261 kts | 104° |
| 2026-05-05 19:42 | 48.45361 | 12.17548 | 5001 ft | 265 kts | 113° |
| 2026-05-05 19:42 | 48.44329 | 12.19781 | 5003 ft | 260 kts | 144° |
| 2026-05-05 19:42 | 48.42748 | 12.20939 | 5000 ft | 252 kts | 174° |
| 2026-05-05 19:43 | 48.41056 | 12.20723 | 5001 ft | 242 kts | 207° |
| 2026-05-05 19:43 | 48.39780 | 12.19184 | 5005 ft | 235 kts | 240° |
| 2026-05-05 19:43 | 48.39267 | 12.16932 | 5007 ft | 223 kts | 264° |
| 2026-05-05 19:43 | 48.39106 | 12.14682 | 5003 ft | 210 kts | 265° |
| 2026-05-05 19:44 | 48.38960 | 12.12566 | 5002 ft | 198 kts | 265° |
| 2026-05-05 19:44 | 48.38812 | 12.10520 | 5002 ft | 195 kts | 264° |
| 2026-05-05 19:44 | 48.38661 | 12.08451 | 4881 ft | 198 kts | 265° |
| 2026-05-05 19:44 | 48.38512 | 12.06441 | 4646 ft | 190 kts | 264° |
| 2026-05-05 19:45 | 48.38369 | 12.04505 | 4383 ft | 183 kts | 264° |
| 2026-05-05 19:45 | 48.38229 | 12.02623 | 4152 ft | 179 kts | 265° |
| 2026-05-05 19:45 | 48.38093 | 12.00791 | 3916 ft | 174 kts | 265° |
| 2026-05-05 19:45 | 48.37960 | 11.99009 | 3690 ft | 170 kts | 265° |
| 2026-05-05 19:46 | 48.37829 | 11.97261 | 3468 ft | 167 kts | 265° |
| 2026-05-05 19:46 | 48.37700 | 11.95541 | 3247 ft | 164 kts | 265° |
| 2026-05-05 19:46 | 48.37575 | 11.93874 | 3048 ft | 155 kts | 265° |
| 2026-05-05 19:46 | 48.37457 | 11.92305 | 2854 ft | 146 kts | 265° |
| 2026-05-05 19:47 | 48.37344 | 11.90818 | 2644 ft | 141 kts | 265° |
| 2026-05-05 19:47 | 48.37237 | 11.89361 | 2440 ft | 140 kts | 265° |
| 2026-05-05 19:47 | 48.37127 | 11.87911 | 2253 ft | 139 kts | 264° |
| 2026-05-05 19:47 | 48.37020 | 11.86465 | 2075 ft | 139 kts | 264° |
| 2026-05-05 19:48 | 48.36905 | 11.85009 | 1882 ft | 141 kts | 264° |
| 2026-05-05 19:48 | 48.36796 | 11.83549 | 1708 ft | 140 kts | 263° |
| 2026-05-05 19:48 | 48.36687 | 11.82097 | 1533 ft | 140 kts | 264° |
| 2026-05-05 19:48 | 48.36582 | 11.80724 | 1485 ft | 117 kts | 263° |
| 2026-05-05 19:49 | 48.36526 | 11.79996 | 1481 ft | 33 kts | 261° |
| 2026-05-05 19:49 | 48.36486 | 11.79803 | 1481 ft | 24 kts | 245° |
| 2026-05-05 19:49 | 48.36394 | 11.79588 | 1478 ft | 18 kts | 234° |
| 2026-05-05 19:49 | 48.36324 | 11.79445 | 1479 ft | 16 kts | 234° |
| 2026-05-05 19:50 | 48.36255 | 11.79309 | 1476 ft | 17 kts | 231° |
| 2026-05-05 19:50 | 48.36191 | 11.79152 | 1479 ft | 18 kts | 257° |
| 2026-05-05 19:50 | 48.36174 | 11.78957 | 1482 ft | 19 kts | 263° |
| 2026-05-05 19:50 | 48.36159 | 11.78749 | 1480 ft | 21 kts | 264° |
| 2026-05-05 19:51 | 48.36142 | 11.78529 | 1485 ft | 22 kts | 263° |
| 2026-05-05 19:51 | 48.36123 | 11.78300 | 1485 ft | 23 kts | 263° |
| 2026-05-05 19:51 | 48.36105 | 11.78061 | 1473 ft | 23 kts | 263° |
| 2026-05-05 19:51 | 48.36089 | 11.77846 | 1476 ft | 16 kts | 263° |
| 2026-05-05 19:52 | 48.36070 | 11.77689 | 1471 ft | 12 kts | 240° |
| 2026-05-05 19:52 | 48.36005 | 11.77668 | 1480 ft | 10 kts | 172° |
| 2026-05-05 19:52 | 48.35946 | 11.77679 | 1482 ft | 8 kts | 173° |
| 2026-05-05 19:52 | 48.35898 | 11.77687 | 1485 ft | 6 kts | 173° |
| 2026-05-05 19:53 | 48.35864 | 11.77693 | 1482 ft | 4 kts | 174° |
| 2026-05-05 19:53 | 48.35833 | 11.77698 | 1485 ft | 6 kts | 174° |
| 2026-05-05 19:53 | 48.35782 | 11.77706 | 1485 ft | 13 kts | 172° |
| 2026-05-05 19:53 | 48.35678 | 11.77725 | 1485 ft | 15 kts | 174° |
| 2026-05-05 19:54 | 48.35570 | 11.77744 | 1485 ft | 16 kts | 173° |
| 2026-05-05 19:54 | 48.35458 | 11.77763 | 1482 ft | 17 kts | 173° |
| 2026-05-05 19:54 | 48.35360 | 11.77784 | 1484 ft | 13 kts | 157° |
| 2026-05-05 19:54 | 48.35339 | 11.77912 | 1485 ft | 14 kts | 84° |
| 2026-05-05 19:55 | 48.35349 | 11.78052 | 1482 ft | 9 kts | 83° |
| 2026-05-05 19:55 | 48.35338 | 11.78145 | 1477 ft | 10 kts | 133° |
| 2026-05-05 19:55 | 48.35272 | 11.78174 | 1478 ft | 11 kts | 174° |
| 2026-05-05 19:55 | 48.35193 | 11.78188 | 1480 ft | 12 kts | 173° |
| 2026-05-05 19:56 | 48.35119 | 11.78201 | 1485 ft | 10 kts | 173° |
| 2026-05-05 19:56 | 48.35044 | 11.78215 | 1480 ft | 12 kts | 172° |
| 2026-05-05 19:56 | 48.34965 | 11.78229 | 1481 ft | 9 kts | 174° |
| 2026-05-05 19:56 | 48.34941 | 11.78268 | 1479 ft | 6 kts | 93° |
| 2026-05-05 19:57 | 48.34945 | 11.78335 | 1482 ft | 6 kts | 84° |
| 2026-05-05 19:57 | 48.34948 | 11.78365 | 1485 ft | 2 kts | 83° |
| 2026-05-05 19:57 | 48.34948 | 11.78374 | 1485 ft | 0 kts | 83° |